sensor_id;sensor_type;location;lat;lon;timestamp;P1;durP1;ratioP1;P2;durP2;ratioP2
73852;SDS011;62191;51.548;5.688;2023-02-28T00:01:24;2.50;;;2.30;;
73852;SDS011;62191;51.548;5.688;2023-02-28T00:03:52;4.70;;;3.27;;
73852;SDS011;62191;51.548;5.688;2023-02-28T00:06:19;4.43;;;3.47;;
73852;SDS011;62191;51.548;5.688;2023-02-28T00:08:47;3.37;;;2.63;;
73852;SDS011;62191;51.548;5.688;2023-02-28T00:11:14;2.53;;;2.33;;
73852;SDS011;62191;51.548;5.688;2023-02-28T00:13:43;2.60;;;2.40;;
73852;SDS011;62191;51.548;5.688;2023-02-28T00:16:15;4.57;;;3.57;;
73852;SDS011;62191;51.548;5.688;2023-02-28T00:18:44;2.87;;;2.37;;
73852;SDS011;62191;51.548;5.688;2023-02-28T00:21:13;3.30;;;2.70;;
73852;SDS011;62191;51.548;5.688;2023-02-28T00:23:42;3.40;;;2.80;;
73852;SDS011;62191;51.548;5.688;2023-02-28T00:26:09;3.17;;;2.87;;
73852;SDS011;62191;51.548;5.688;2023-02-28T00:28:36;2.67;;;2.47;;
73852;SDS011;62191;51.548;5.688;2023-02-28T00:31:04;3.47;;;3.17;;
73852;SDS011;62191;51.548;5.688;2023-02-28T00:33:31;4.37;;;2.90;;
73852;SDS011;62191;51.548;5.688;2023-02-28T00:36:07;3.50;;;3.13;;
73852;SDS011;62191;51.548;5.688;2023-02-28T00:38:31;7.93;;;3.10;;
73852;SDS011;62191;51.548;5.688;2023-02-28T00:40:59;3.03;;;2.70;;
73852;SDS011;62191;51.548;5.688;2023-02-28T00:43:28;3.47;;;3.17;;
73852;SDS011;62191;51.548;5.688;2023-02-28T00:45:55;2.70;;;2.50;;
73852;SDS011;62191;51.548;5.688;2023-02-28T00:48:23;4.63;;;2.90;;
73852;SDS011;62191;51.548;5.688;2023-02-28T00:50:50;3.57;;;3.00;;
73852;SDS011;62191;51.548;5.688;2023-02-28T00:53:17;3.80;;;3.50;;
73852;SDS011;62191;51.548;5.688;2023-02-28T00:55:45;3.53;;;2.73;;
73852;SDS011;62191;51.548;5.688;2023-02-28T00:58:12;3.50;;;2.77;;
73852;SDS011;62191;51.548;5.688;2023-02-28T01:00:39;17.20;;;3.87;;
73852;SDS011;62191;51.548;5.688;2023-02-28T01:03:06;3.80;;;3.50;;
73852;SDS011;62191;51.548;5.688;2023-02-28T01:05:34;2.80;;;2.60;;
73852;SDS011;62191;51.548;5.688;2023-02-28T01:08:01;4.43;;;3.50;;
73852;SDS011;62191;51.548;5.688;2023-02-28T01:10:28;3.27;;;3.00;;
73852;SDS011;62191;51.548;5.688;2023-02-28T01:12:57;7.23;;;3.87;;
73852;SDS011;62191;51.548;5.688;2023-02-28T01:15:24;4.00;;;2.70;;
73852;SDS011;62191;51.548;5.688;2023-02-28T01:17:51;3.57;;;2.60;;
73852;SDS011;62191;51.548;5.688;2023-02-28T01:20:18;5.13;;;3.93;;
73852;SDS011;62191;51.548;5.688;2023-02-28T01:22:46;4.47;;;4.00;;
73852;SDS011;62191;51.548;5.688;2023-02-28T01:25:13;5.23;;;4.93;;
73852;SDS011;62191;51.548;5.688;2023-02-28T01:27:41;3.90;;;3.17;;
73852;SDS011;62191;51.548;5.688;2023-02-28T01:30:08;3.63;;;3.30;;
73852;SDS011;62191;51.548;5.688;2023-02-28T01:32:36;3.70;;;2.93;;
73852;SDS011;62191;51.548;5.688;2023-02-28T01:35:03;3.87;;;3.57;;
73852;SDS011;62191;51.548;5.688;2023-02-28T01:37:31;5.10;;;3.40;;
73852;SDS011;62191;51.548;5.688;2023-02-28T01:39:58;10.53;;;3.83;;
73852;SDS011;62191;51.548;5.688;2023-02-28T01:42:26;5.13;;;3.17;;
73852;SDS011;62191;51.548;5.688;2023-02-28T01:47:33;4.23;;;3.70;;
73852;SDS011;62191;51.548;5.688;2023-02-28T01:50:03;3.13;;;2.93;;
73852;SDS011;62191;51.548;5.688;2023-02-28T01:52:32;4.03;;;3.73;;
73852;SDS011;62191;51.548;5.688;2023-02-28T01:55:00;4.20;;;3.53;;
73852;SDS011;62191;51.548;5.688;2023-02-28T01:57:30;3.27;;;3.03;;
73852;SDS011;62191;51.548;5.688;2023-02-28T02:00:02;3.87;;;3.53;;
73852;SDS011;62191;51.548;5.688;2023-02-28T02:02:34;3.50;;;3.20;;
73852;SDS011;62191;51.548;5.688;2023-02-28T02:05:07;3.70;;;3.10;;
73852;SDS011;62191;51.548;5.688;2023-02-28T02:07:37;6.47;;;4.50;;
73852;SDS011;62191;51.548;5.688;2023-02-28T02:10:10;3.17;;;2.73;;
73852;SDS011;62191;51.548;5.688;2023-02-28T02:18:11;3.40;;;3.10;;
73852;SDS011;62191;51.548;5.688;2023-02-28T02:23:48;3.50;;;3.20;;
73852;SDS011;62191;51.548;5.688;2023-02-28T02:38:06;3.83;;;3.33;;
73852;SDS011;62191;51.548;5.688;2023-02-28T02:40:30;4.10;;;3.40;;
73852;SDS011;62191;51.548;5.688;2023-02-28T02:43:03;3.70;;;3.47;;
73852;SDS011;62191;51.548;5.688;2023-02-28T02:45:39;4.10;;;3.70;;
73852;SDS011;62191;51.548;5.688;2023-02-28T02:48:09;5.93;;;4.57;;
73852;SDS011;62191;51.548;5.688;2023-02-28T02:50:43;2.90;;;2.70;;
73852;SDS011;62191;51.548;5.688;2023-02-28T02:53:11;4.30;;;3.33;;
73852;SDS011;62191;51.548;5.688;2023-02-28T02:55:40;4.90;;;3.33;;
73852;SDS011;62191;51.548;5.688;2023-02-28T02:58:10;6.07;;;2.73;;
73852;SDS011;62191;51.548;5.688;2023-02-28T03:00:43;3.30;;;3.00;;
73852;SDS011;62191;51.548;5.688;2023-02-28T03:03:12;6.53;;;3.43;;
73852;SDS011;62191;51.548;5.688;2023-02-28T03:05:45;3.53;;;2.67;;
73852;SDS011;62191;51.548;5.688;2023-02-28T03:08:12;7.30;;;2.60;;
73852;SDS011;62191;51.548;5.688;2023-02-28T03:10:43;2.50;;;2.33;;
73852;SDS011;62191;51.548;5.688;2023-02-28T03:13:17;2.93;;;2.63;;
73852;SDS011;62191;51.548;5.688;2023-02-28T03:15:58;4.43;;;3.57;;
73852;SDS011;62191;51.548;5.688;2023-02-28T03:21:12;4.33;;;3.17;;
73852;SDS011;62191;51.548;5.688;2023-02-28T03:23:58;2.60;;;2.37;;
73852;SDS011;62191;51.548;5.688;2023-02-28T03:26:48;4.90;;;2.90;;
73852;SDS011;62191;51.548;5.688;2023-02-28T03:29:14;4.63;;;3.37;;
73852;SDS011;62191;51.548;5.688;2023-02-28T03:32:45;4.20;;;3.20;;
73852;SDS011;62191;51.548;5.688;2023-02-28T03:34:45;2.67;;;2.23;;
73852;SDS011;62191;51.548;5.688;2023-02-28T03:37:19;3.40;;;3.10;;
73852;SDS011;62191;51.548;5.688;2023-02-28T03:39:50;5.17;;;3.03;;
73852;SDS011;62191;51.548;5.688;2023-02-28T03:42:20;3.43;;;3.13;;
73852;SDS011;62191;51.548;5.688;2023-02-28T03:44:49;6.47;;;3.20;;
73852;SDS011;62191;51.548;5.688;2023-02-28T03:47:24;5.10;;;3.17;;
73852;SDS011;62191;51.548;5.688;2023-02-28T03:49:49;2.97;;;2.73;;
73852;SDS011;62191;51.548;5.688;2023-02-28T03:52:21;3.57;;;3.13;;
73852;SDS011;62191;51.548;5.688;2023-02-28T03:54:54;6.00;;;3.13;;
73852;SDS011;62191;51.548;5.688;2023-02-28T03:57:27;4.33;;;3.00;;
73852;SDS011;62191;51.548;5.688;2023-02-28T03:59:59;3.00;;;2.33;;
73852;SDS011;62191;51.548;5.688;2023-02-28T04:02:32;2.70;;;2.50;;
73852;SDS011;62191;51.548;5.688;2023-02-28T04:05:00;3.20;;;2.77;;
73852;SDS011;62191;51.548;5.688;2023-02-28T04:07:31;3.50;;;3.07;;
73852;SDS011;62191;51.548;5.688;2023-02-28T04:09:59;3.27;;;2.97;;
73852;SDS011;62191;51.548;5.688;2023-02-28T04:12:27;3.43;;;2.57;;
73852;SDS011;62191;51.548;5.688;2023-02-28T04:14:54;2.63;;;2.33;;
73852;SDS011;62191;51.548;5.688;2023-02-28T04:17:21;4.20;;;3.57;;
73852;SDS011;62191;51.548;5.688;2023-02-28T04:19:49;7.17;;;2.43;;
73852;SDS011;62191;51.548;5.688;2023-02-28T04:22:16;2.57;;;2.37;;
73852;SDS011;62191;51.548;5.688;2023-02-28T04:24:43;2.67;;;2.17;;
73852;SDS011;62191;51.548;5.688;2023-02-28T04:27:11;2.70;;;2.50;;
73852;SDS011;62191;51.548;5.688;2023-02-28T04:29:38;2.53;;;2.40;;
73852;SDS011;62191;51.548;5.688;2023-02-28T04:32:07;2.83;;;2.63;;
73852;SDS011;62191;51.548;5.688;2023-02-28T04:34:34;2.70;;;2.37;;
73852;SDS011;62191;51.548;5.688;2023-02-28T04:37:02;2.53;;;2.27;;
73852;SDS011;62191;51.548;5.688;2023-02-28T04:39:29;2.73;;;2.63;;
73852;SDS011;62191;51.548;5.688;2023-02-28T04:41:59;3.70;;;3.27;;
73852;SDS011;62191;51.548;5.688;2023-02-28T04:44:26;3.33;;;2.83;;
73852;SDS011;62191;51.548;5.688;2023-02-28T04:46:53;3.47;;;2.50;;
73852;SDS011;62191;51.548;5.688;2023-02-28T04:49:20;2.40;;;2.20;;
73852;SDS011;62191;51.548;5.688;2023-02-28T04:51:48;3.17;;;2.40;;
73852;SDS011;62191;51.548;5.688;2023-02-28T04:54:17;2.93;;;2.33;;
73852;SDS011;62191;51.548;5.688;2023-02-28T04:56:44;3.33;;;2.57;;
73852;SDS011;62191;51.548;5.688;2023-02-28T04:59:13;2.93;;;2.70;;
73852;SDS011;62191;51.548;5.688;2023-02-28T05:01:40;2.53;;;2.13;;
73852;SDS011;62191;51.548;5.688;2023-02-28T05:04:11;3.43;;;1.90;;
73852;SDS011;62191;51.548;5.688;2023-02-28T05:06:38;2.80;;;2.60;;
73852;SDS011;62191;51.548;5.688;2023-02-28T05:09:05;2.37;;;2.13;;
73852;SDS011;62191;51.548;5.688;2023-02-28T05:11:33;2.97;;;2.37;;
73852;SDS011;62191;51.548;5.688;2023-02-28T05:14:02;2.63;;;2.00;;
73852;SDS011;62191;51.548;5.688;2023-02-28T05:16:31;3.23;;;2.20;;
73852;SDS011;62191;51.548;5.688;2023-02-28T05:18:59;4.40;;;2.70;;
73852;SDS011;62191;51.548;5.688;2023-02-28T05:21:33;2.80;;;2.57;;
73852;SDS011;62191;51.548;5.688;2023-02-28T05:24:06;3.73;;;2.50;;
73852;SDS011;62191;51.548;5.688;2023-02-28T05:26:36;2.20;;;2.00;;
73852;SDS011;62191;51.548;5.688;2023-02-28T05:29:04;3.17;;;2.27;;
73852;SDS011;62191;51.548;5.688;2023-02-28T05:31:32;2.47;;;2.10;;
73852;SDS011;62191;51.548;5.688;2023-02-28T05:34:00;2.77;;;2.60;;
73852;SDS011;62191;51.548;5.688;2023-02-28T05:36:29;3.17;;;2.40;;
73852;SDS011;62191;51.548;5.688;2023-02-28T05:38:57;2.40;;;2.20;;
73852;SDS011;62191;51.548;5.688;2023-02-28T05:41:24;2.23;;;2.13;;
73852;SDS011;62191;51.548;5.688;2023-02-28T05:43:52;2.40;;;2.30;;
73852;SDS011;62191;51.548;5.688;2023-02-28T05:46:19;2.80;;;2.50;;
73852;SDS011;62191;51.548;5.688;2023-02-28T05:48:47;3.83;;;1.83;;
73852;SDS011;62191;51.548;5.688;2023-02-28T05:51:15;1.83;;;1.73;;
73852;SDS011;62191;51.548;5.688;2023-02-28T05:53:43;2.13;;;1.93;;
73852;SDS011;62191;51.548;5.688;2023-02-28T05:56:10;2.57;;;2.37;;
73852;SDS011;62191;51.548;5.688;2023-02-28T05:58:37;2.33;;;2.13;;
73852;SDS011;62191;51.548;5.688;2023-02-28T06:04:08;2.00;;;1.80;;
73852;SDS011;62191;51.548;5.688;2023-02-28T06:06:41;2.67;;;1.97;;
73852;SDS011;62191;51.548;5.688;2023-02-28T06:09:14;2.03;;;1.90;;
73852;SDS011;62191;51.548;5.688;2023-02-28T06:11:51;2.47;;;1.90;;
73852;SDS011;62191;51.548;5.688;2023-02-28T06:14:30;5.20;;;3.30;;
73852;SDS011;62191;51.548;5.688;2023-02-28T06:17:00;1.90;;;1.80;;
73852;SDS011;62191;51.548;5.688;2023-02-28T06:19:31;2.90;;;2.47;;
73852;SDS011;62191;51.548;5.688;2023-02-28T06:22:06;1.97;;;1.87;;
73852;SDS011;62191;51.548;5.688;2023-02-28T06:24:39;2.60;;;2.05;;
73852;SDS011;62191;51.548;5.688;2023-02-28T06:27:08;2.27;;;2.17;;
73852;SDS011;62191;51.548;5.688;2023-02-28T06:29:39;2.50;;;2.30;;
73852;SDS011;62191;51.548;5.688;2023-02-28T06:34:36;2.63;;;2.30;;
73852;SDS011;62191;51.548;5.688;2023-02-28T06:37:07;3.60;;;1.75;;
73852;SDS011;62191;51.548;5.688;2023-02-28T06:39:47;1.70;;;1.60;;
73852;SDS011;62191;51.548;5.688;2023-02-28T06:42:14;3.00;;;2.73;;
73852;SDS011;62191;51.548;5.688;2023-02-28T06:44:41;1.93;;;1.60;;
73852;SDS011;62191;51.548;5.688;2023-02-28T06:47:08;2.73;;;2.27;;
73852;SDS011;62191;51.548;5.688;2023-02-28T06:49:36;1.90;;;1.80;;
73852;SDS011;62191;51.548;5.688;2023-02-28T06:52:04;4.60;;;2.25;;
73852;SDS011;62191;51.548;5.688;2023-02-28T06:54:31;2.85;;;2.20;;
73852;SDS011;62191;51.548;5.688;2023-02-28T06:56:59;2.70;;;2.50;;
73852;SDS011;62191;51.548;5.688;2023-02-28T06:59:26;2.40;;;2.20;;
73852;SDS011;62191;51.548;5.688;2023-02-28T07:01:53;4.73;;;3.93;;
73852;SDS011;62191;51.548;5.688;2023-02-28T07:04:21;2.45;;;2.20;;
73852;SDS011;62191;51.548;5.688;2023-02-28T07:06:48;2.40;;;2.20;;
73852;SDS011;62191;51.548;5.688;2023-02-28T07:09:16;2.50;;;2.07;;
73852;SDS011;62191;51.548;5.688;2023-02-28T07:11:44;2.85;;;2.00;;
73852;SDS011;62191;51.548;5.688;2023-02-28T07:14:11;3.30;;;2.40;;
73852;SDS011;62191;51.548;5.688;2023-02-28T07:19:05;2.70;;;2.50;;
73852;SDS011;62191;51.548;5.688;2023-02-28T07:21:33;1.97;;;1.87;;
73852;SDS011;62191;51.548;5.688;2023-02-28T07:24:00;2.47;;;1.90;;
73852;SDS011;62191;51.548;5.688;2023-02-28T07:26:27;2.77;;;1.83;;
73852;SDS011;62191;51.548;5.688;2023-02-28T07:28:55;1.90;;;1.80;;
73852;SDS011;62191;51.548;5.688;2023-02-28T07:31:22;3.03;;;2.07;;
73852;SDS011;62191;51.548;5.688;2023-02-28T07:36:16;5.65;;;2.30;;
73852;SDS011;62191;51.548;5.688;2023-02-28T07:38:47;2.70;;;2.30;;
73852;SDS011;62191;51.548;5.688;2023-02-28T07:41:16;1.80;;;1.70;;
73852;SDS011;62191;51.548;5.688;2023-02-28T07:43:44;1.90;;;1.80;;
73852;SDS011;62191;51.548;5.688;2023-02-28T07:46:13;1.70;;;1.60;;
73852;SDS011;62191;51.548;5.688;2023-02-28T07:48:41;1.90;;;1.80;;
73852;SDS011;62191;51.548;5.688;2023-02-28T07:51:09;1.80;;;1.70;;
73852;SDS011;62191;51.548;5.688;2023-02-28T07:53:36;1.65;;;1.55;;
73852;SDS011;62191;51.548;5.688;2023-02-28T07:56:04;1.70;;;1.60;;
73852;SDS011;62191;51.548;5.688;2023-02-28T07:58:32;1.77;;;1.67;;
73852;SDS011;62191;51.548;5.688;2023-02-28T08:03:36;2.00;;;1.85;;
73852;SDS011;62191;51.548;5.688;2023-02-28T08:06:06;1.60;;;1.50;;
73852;SDS011;62191;51.548;5.688;2023-02-28T08:08:39;2.45;;;2.25;;
73852;SDS011;62191;51.548;5.688;2023-02-28T08:11:10;1.80;;;1.70;;
73852;SDS011;62191;51.548;5.688;2023-02-28T08:13:37;2.90;;;1.85;;
73852;SDS011;62191;51.548;5.688;2023-02-28T08:16:07;1.70;;;1.60;;
73852;SDS011;62191;51.548;5.688;2023-02-28T08:18:35;2.20;;;1.80;;
73852;SDS011;62191;51.548;5.688;2023-02-28T08:21:06;1.45;;;1.40;;
73852;SDS011;62191;51.548;5.688;2023-02-28T08:23:36;3.40;;;1.80;;
73852;SDS011;62191;51.548;5.688;2023-02-28T08:26:04;2.15;;;1.75;;
73852;SDS011;62191;51.548;5.688;2023-02-28T08:28:31;2.20;;;1.80;;
73852;SDS011;62191;51.548;5.688;2023-02-28T08:30:58;1.70;;;1.60;;
73852;SDS011;62191;51.548;5.688;2023-02-28T08:33:26;1.60;;;1.50;;
73852;SDS011;62191;51.548;5.688;2023-02-28T08:35:54;1.90;;;1.55;;
73852;SDS011;62191;51.548;5.688;2023-02-28T08:38:23;1.57;;;1.47;;
73852;SDS011;62191;51.548;5.688;2023-02-28T08:40:56;1.53;;;1.40;;
73852;SDS011;62191;51.548;5.688;2023-02-28T08:45:52;2.63;;;1.57;;
73852;SDS011;62191;51.548;5.688;2023-02-28T08:48:25;1.35;;;1.25;;
73852;SDS011;62191;51.548;5.688;2023-02-28T08:51:05;1.47;;;1.37;;
73852;SDS011;62191;51.548;5.688;2023-02-28T08:53:37;1.40;;;1.40;;
73852;SDS011;62191;51.548;5.688;2023-02-28T08:56:06;1.50;;;1.40;;
73852;SDS011;62191;51.548;5.688;2023-02-28T08:58:35;3.83;;;2.43;;
73852;SDS011;62191;51.548;5.688;2023-02-28T09:01:09;1.60;;;1.50;;
73852;SDS011;62191;51.548;5.688;2023-02-28T09:06:07;1.30;;;1.30;;
73852;SDS011;62191;51.548;5.688;2023-02-28T09:08:35;1.67;;;1.57;;
73852;SDS011;62191;51.548;5.688;2023-02-28T09:11:03;1.70;;;1.60;;
73852;SDS011;62191;51.548;5.688;2023-02-28T09:15:58;1.40;;;1.30;;
73852;SDS011;62191;51.548;5.688;2023-02-28T09:20:53;2.07;;;1.87;;
73852;SDS011;62191;51.548;5.688;2023-02-28T09:23:21;1.70;;;1.10;;
73852;SDS011;62191;51.548;5.688;2023-02-28T09:25:50;1.00;;;1.00;;
73852;SDS011;62191;51.548;5.688;2023-02-28T09:28:18;1.45;;;1.35;;
73852;SDS011;62191;51.548;5.688;2023-02-28T09:30:47;1.17;;;1.10;;
73852;SDS011;62191;51.548;5.688;2023-02-28T09:33:16;1.73;;;1.17;;
73852;SDS011;62191;51.548;5.688;2023-02-28T09:35:45;1.10;;;1.10;;
73852;SDS011;62191;51.548;5.688;2023-02-28T09:38:14;6.27;;;1.97;;
73852;SDS011;62191;51.548;5.688;2023-02-28T09:43:29;1.07;;;1.03;;
73852;SDS011;62191;51.548;5.688;2023-02-28T09:46:02;2.20;;;2.10;;
73852;SDS011;62191;51.548;5.688;2023-02-28T09:48:32;1.60;;;1.20;;
73852;SDS011;62191;51.548;5.688;2023-02-28T09:51:12;1.10;;;1.00;;
73852;SDS011;62191;51.548;5.688;2023-02-28T09:53:52;0.70;;;0.70;;
73852;SDS011;62191;51.548;5.688;2023-02-28T09:56:39;1.50;;;0.90;;
73852;SDS011;62191;51.548;5.688;2023-02-28T09:59:18;2.05;;;1.30;;
73852;SDS011;62191;51.548;5.688;2023-02-28T10:02:08;1.33;;;1.23;;
73852;SDS011;62191;51.548;5.688;2023-02-28T10:07:17;0.85;;;0.85;;
73852;SDS011;62191;51.548;5.688;2023-02-28T10:10:01;1.20;;;1.10;;
73852;SDS011;62191;51.548;5.688;2023-02-28T10:12:30;0.90;;;0.90;;
73852;SDS011;62191;51.548;5.688;2023-02-28T10:14:58;0.70;;;0.70;;
73852;SDS011;62191;51.548;5.688;2023-02-28T10:17:31;1.87;;;1.13;;
73852;SDS011;62191;51.548;5.688;2023-02-28T10:19:59;1.10;;;1.00;;
73852;SDS011;62191;51.548;5.688;2023-02-28T10:22:51;1.23;;;1.13;;
73852;SDS011;62191;51.548;5.688;2023-02-28T10:25:23;0.93;;;0.93;;
73852;SDS011;62191;51.548;5.688;2023-02-28T10:27:57;2.37;;;0.90;;
73852;SDS011;62191;51.548;5.688;2023-02-28T10:30:22;0.80;;;0.80;;
73852;SDS011;62191;51.548;5.688;2023-02-28T10:32:50;1.03;;;1.03;;
73852;SDS011;62191;51.548;5.688;2023-02-28T10:35:20;0.80;;;0.80;;
73852;SDS011;62191;51.548;5.688;2023-02-28T10:37:50;2.57;;;1.37;;
73852;SDS011;62191;51.548;5.688;2023-02-28T10:45:26;1.77;;;1.10;;
73852;SDS011;62191;51.548;5.688;2023-02-28T10:53:22;0.70;;;0.70;;
73852;SDS011;62191;51.548;5.688;2023-02-28T10:56:00;0.80;;;0.80;;
73852;SDS011;62191;51.548;5.688;2023-02-28T11:01:34;0.80;;;0.80;;
73852;SDS011;62191;51.548;5.688;2023-02-28T11:06:58;1.40;;;0.90;;
73852;SDS011;62191;51.548;5.688;2023-02-28T11:09:28;0.90;;;0.90;;
73852;SDS011;62191;51.548;5.688;2023-02-28T11:12:04;1.53;;;1.43;;
73852;SDS011;62191;51.548;5.688;2023-02-28T11:14:46;0.90;;;0.90;;
73852;SDS011;62191;51.548;5.688;2023-02-28T11:17:21;1.10;;;1.00;;
73852;SDS011;62191;51.548;5.688;2023-02-28T11:19:51;5.80;;;0.90;;
73852;SDS011;62191;51.548;5.688;2023-02-28T11:22:21;1.30;;;0.83;;
73852;SDS011;62191;51.548;5.688;2023-02-28T11:24:53;1.20;;;1.10;;
73852;SDS011;62191;51.548;5.688;2023-02-28T11:30:01;1.77;;;1.07;;
73852;SDS011;62191;51.548;5.688;2023-02-28T11:32:29;0.90;;;0.90;;
73852;SDS011;62191;51.548;5.688;2023-02-28T11:37:42;0.73;;;0.73;;
73852;SDS011;62191;51.548;5.688;2023-02-28T11:40:18;2.23;;;0.87;;
73852;SDS011;62191;51.548;5.688;2023-02-28T11:48:04;0.87;;;0.87;;
73852;SDS011;62191;51.548;5.688;2023-02-28T11:56:09;0.90;;;0.90;;
73852;SDS011;62191;51.548;5.688;2023-02-28T12:02:04;1.17;;;0.90;;
73852;SDS011;62191;51.548;5.688;2023-02-28T12:07:19;0.80;;;0.80;;
73852;SDS011;62191;51.548;5.688;2023-02-28T12:15:17;1.83;;;1.23;;
73852;SDS011;62191;51.548;5.688;2023-02-28T12:20:44;3.15;;;1.17;;
73852;SDS011;62191;51.548;5.688;2023-02-28T12:26:19;0.87;;;0.87;;
73852;SDS011;62191;51.548;5.688;2023-02-28T12:28:52;0.80;;;0.80;;
73852;SDS011;62191;51.548;5.688;2023-02-28T12:31:22;1.97;;;1.27;;
73852;SDS011;62191;51.548;5.688;2023-02-28T12:33:51;1.23;;;1.13;;
73852;SDS011;62191;51.548;5.688;2023-02-28T12:36:21;0.73;;;0.70;;
73852;SDS011;62191;51.548;5.688;2023-02-28T12:38:52;0.90;;;0.90;;
73852;SDS011;62191;51.548;5.688;2023-02-28T12:41:22;2.30;;;1.40;;
73852;SDS011;62191;51.548;5.688;2023-02-28T12:44:16;1.70;;;1.23;;
73852;SDS011;62191;51.548;5.688;2023-02-28T12:46:46;1.23;;;1.13;;
73852;SDS011;62191;51.548;5.688;2023-02-28T12:49:16;1.43;;;1.43;;
73852;SDS011;62191;51.548;5.688;2023-02-28T12:51:45;1.17;;;1.13;;
73852;SDS011;62191;51.548;5.688;2023-02-28T12:59:41;2.37;;;1.23;;
73852;SDS011;62191;51.548;5.688;2023-02-28T13:05:07;0.60;;;0.60;;
73852;SDS011;62191;51.548;5.688;2023-02-28T13:07:58;0.80;;;0.80;;
73852;SDS011;62191;51.548;5.688;2023-02-28T13:10:47;1.00;;;0.90;;
73852;SDS011;62191;51.548;5.688;2023-02-28T13:13:26;0.70;;;0.70;;
73852;SDS011;62191;51.548;5.688;2023-02-28T13:16:03;0.93;;;0.70;;
73852;SDS011;62191;51.548;5.688;2023-02-28T13:18:45;1.20;;;1.10;;
73852;SDS011;62191;51.548;5.688;2023-02-28T13:21:23;2.10;;;1.10;;
73852;SDS011;62191;51.548;5.688;2023-02-28T13:29:02;1.10;;;0.83;;
73852;SDS011;62191;51.548;5.688;2023-02-28T13:34:41;1.23;;;0.93;;
73852;SDS011;62191;51.548;5.688;2023-02-28T14:00:22;4.87;;;2.03;;
73852;SDS011;62191;51.548;5.688;2023-02-28T14:02:59;0.90;;;0.90;;
73852;SDS011;62191;51.548;5.688;2023-02-28T14:05:33;1.30;;;1.20;;
73852;SDS011;62191;51.548;5.688;2023-02-28T14:10:47;1.10;;;1.10;;
73852;SDS011;62191;51.548;5.688;2023-02-28T14:15:56;1.77;;;1.27;;
73852;SDS011;62191;51.548;5.688;2023-02-28T14:18:25;0.93;;;0.90;;
73852;SDS011;62191;51.548;5.688;2023-02-28T14:24:13;1.50;;;1.37;;
73852;SDS011;62191;51.548;5.688;2023-02-28T14:32:32;3.27;;;1.77;;
73852;SDS011;62191;51.548;5.688;2023-02-28T14:38:16;2.33;;;1.13;;
73852;SDS011;62191;51.548;5.688;2023-02-28T14:40:44;1.10;;;0.80;;
73852;SDS011;62191;51.548;5.688;2023-02-28T14:43:27;1.60;;;1.10;;
73852;SDS011;62191;51.548;5.688;2023-02-28T14:45:59;1.10;;;1.00;;
73852;SDS011;62191;51.548;5.688;2023-02-28T14:48:27;1.90;;;1.33;;
73852;SDS011;62191;51.548;5.688;2023-02-28T14:51:00;2.03;;;1.30;;
73852;SDS011;62191;51.548;5.688;2023-02-28T14:53:25;1.10;;;1.10;;
73852;SDS011;62191;51.548;5.688;2023-02-28T14:55:56;1.57;;;1.27;;
73852;SDS011;62191;51.548;5.688;2023-02-28T14:58:29;1.47;;;1.30;;
73852;SDS011;62191;51.548;5.688;2023-02-28T15:00:59;1.47;;;1.37;;
73852;SDS011;62191;51.548;5.688;2023-02-28T15:03:30;1.20;;;1.10;;
73852;SDS011;62191;51.548;5.688;2023-02-28T15:05:58;1.83;;;1.20;;
73852;SDS011;62191;51.548;5.688;2023-02-28T15:08:28;1.53;;;1.10;;
73852;SDS011;62191;51.548;5.688;2023-02-28T15:10:58;2.20;;;1.67;;
73852;SDS011;62191;51.548;5.688;2023-02-28T15:13:30;1.53;;;1.13;;
73852;SDS011;62191;51.548;5.688;2023-02-28T15:16:15;3.43;;;1.60;;
73852;SDS011;62191;51.548;5.688;2023-02-28T15:18:46;1.50;;;1.40;;
73852;SDS011;62191;51.548;5.688;2023-02-28T15:21:22;2.43;;;2.23;;
73852;SDS011;62191;51.548;5.688;2023-02-28T15:24:03;2.87;;;1.17;;
73852;SDS011;62191;51.548;5.688;2023-02-28T15:26:29;1.87;;;1.20;;
73852;SDS011;62191;51.548;5.688;2023-02-28T15:29:03;1.53;;;1.40;;
73852;SDS011;62191;51.548;5.688;2023-02-28T15:31:43;2.83;;;2.33;;
73852;SDS011;62191;51.548;5.688;2023-02-28T15:34:34;1.20;;;1.10;;
73852;SDS011;62191;51.548;5.688;2023-02-28T15:36:46;2.23;;;1.00;;
73852;SDS011;62191;51.548;5.688;2023-02-28T15:39:21;1.33;;;1.23;;
73852;SDS011;62191;51.548;5.688;2023-02-28T15:41:50;1.73;;;1.63;;
73852;SDS011;62191;51.548;5.688;2023-02-28T15:49:29;2.30;;;1.00;;
73852;SDS011;62191;51.548;5.688;2023-02-28T15:52:04;1.27;;;1.13;;
73852;SDS011;62191;51.548;5.688;2023-02-28T15:54:32;1.20;;;1.10;;
73852;SDS011;62191;51.548;5.688;2023-02-28T15:57:04;3.30;;;1.13;;
73852;SDS011;62191;51.548;5.688;2023-02-28T15:59:34;3.20;;;1.32;;
73852;SDS011;62191;51.548;5.688;2023-02-28T16:02:16;1.13;;;1.03;;
73852;SDS011;62191;51.548;5.688;2023-02-28T16:07:43;2.00;;;1.57;;
73852;SDS011;62191;51.548;5.688;2023-02-28T16:10:09;1.23;;;1.13;;
73852;SDS011;62191;51.548;5.688;2023-02-28T16:12:39;1.17;;;1.17;;
73852;SDS011;62191;51.548;5.688;2023-02-28T16:15:17;1.10;;;1.10;;
73852;SDS011;62191;51.548;5.688;2023-02-28T16:17:38;1.00;;;0.90;;
73852;SDS011;62191;51.548;5.688;2023-02-28T16:20:11;1.30;;;1.20;;
73852;SDS011;62191;51.548;5.688;2023-02-28T16:22:41;2.10;;;1.40;;
73852;SDS011;62191;51.548;5.688;2023-02-28T16:25:18;1.40;;;1.00;;
73852;SDS011;62191;51.548;5.688;2023-02-28T16:27:41;1.43;;;1.33;;
73852;SDS011;62191;51.548;5.688;2023-02-28T16:30:16;1.53;;;1.43;;
73852;SDS011;62191;51.548;5.688;2023-02-28T16:32:48;2.47;;;1.10;;
73852;SDS011;62191;51.548;5.688;2023-02-28T16:35:16;2.20;;;1.60;;
73852;SDS011;62191;51.548;5.688;2023-02-28T16:37:44;0.90;;;0.90;;
73852;SDS011;62191;51.548;5.688;2023-02-28T16:40:16;1.77;;;1.23;;
73852;SDS011;62191;51.548;5.688;2023-02-28T16:42:52;1.73;;;1.33;;
73852;SDS011;62191;51.548;5.688;2023-02-28T16:45:24;1.23;;;1.13;;
73852;SDS011;62191;51.548;5.688;2023-02-28T16:47:52;1.20;;;1.07;;
73852;SDS011;62191;51.548;5.688;2023-02-28T16:50:21;1.77;;;1.57;;
73852;SDS011;62191;51.548;5.688;2023-02-28T16:52:50;1.10;;;1.10;;
73852;SDS011;62191;51.548;5.688;2023-02-28T16:55:21;1.20;;;1.20;;
73852;SDS011;62191;51.548;5.688;2023-02-28T16:57:59;2.73;;;1.60;;
73852;SDS011;62191;51.548;5.688;2023-02-28T17:00:27;1.57;;;1.47;;
73852;SDS011;62191;51.548;5.688;2023-02-28T17:02:55;1.90;;;1.53;;
73852;SDS011;62191;51.548;5.688;2023-02-28T17:05:25;1.20;;;1.20;;
73852;SDS011;62191;51.548;5.688;2023-02-28T17:07:54;2.43;;;1.57;;
73852;SDS011;62191;51.548;5.688;2023-02-28T17:10:23;1.27;;;1.23;;
73852;SDS011;62191;51.548;5.688;2023-02-28T17:12:51;1.47;;;1.37;;
73852;SDS011;62191;51.548;5.688;2023-02-28T17:15:19;1.70;;;1.60;;
73852;SDS011;62191;51.548;5.688;2023-02-28T17:17:47;1.27;;;1.23;;
73852;SDS011;62191;51.548;5.688;2023-02-28T17:20:18;1.40;;;1.30;;
73852;SDS011;62191;51.548;5.688;2023-02-28T17:22:49;1.60;;;1.50;;
73852;SDS011;62191;51.548;5.688;2023-02-28T17:25:17;3.70;;;1.53;;
73852;SDS011;62191;51.548;5.688;2023-02-28T17:27:44;1.33;;;1.13;;
73852;SDS011;62191;51.548;5.688;2023-02-28T17:30:19;1.50;;;1.40;;
73852;SDS011;62191;51.548;5.688;2023-02-28T17:32:47;2.63;;;1.63;;
73852;SDS011;62191;51.548;5.688;2023-02-28T17:35:15;3.67;;;1.70;;
73852;SDS011;62191;51.548;5.688;2023-02-28T17:37:42;4.17;;;1.67;;
73852;SDS011;62191;51.548;5.688;2023-02-28T17:40:15;1.40;;;1.30;;
73852;SDS011;62191;51.548;5.688;2023-02-28T17:42:39;1.80;;;1.50;;
73852;SDS011;62191;51.548;5.688;2023-02-28T17:45:07;2.23;;;2.07;;
73852;SDS011;62191;51.548;5.688;2023-02-28T17:47:35;2.83;;;2.60;;
73852;SDS011;62191;51.548;5.688;2023-02-28T17:50:02;1.53;;;1.23;;
73852;SDS011;62191;51.548;5.688;2023-02-28T17:52:29;3.03;;;1.73;;
73852;SDS011;62191;51.548;5.688;2023-02-28T17:54:58;1.83;;;1.33;;
73852;SDS011;62191;51.548;5.688;2023-02-28T17:57:26;2.60;;;2.40;;